KIJD

Windham Airport

Willimantic, Connecticut, USA
METAR KIJD 221352Z AUTO 20003KT 10SM OVC110 04/00 A3022 RMK AO2 SLP235 T00440000
Observed Flight Rules
Oct-22 @ 13:52 UTC (29 minutes ago) Visual Flight Rules
Wind Visibility Clouds
200° at 3 knots 10 miles
  • Overcast at 11,000' AGL
Temperatures Readings
Current 4°C / 39°F
Dewpoint 0°C / 32°F
Humidity 75%
Altimeter 30.22" Hg
Pressure 1023.5 hPa
Elevation 75
METAR KIJD 221352Z AUTO 20003KT 10SM OVC110 04/00 A3022 RMK AO2 SLP235 T00440000
Observed Flight Rules
Oct-22 @ 13:52 UTC
(29 minutes ago)
VFR
Wind Visibility
200° at 3 knots 10 miles
Clouds
  • Overcast at 11,000' AGL
Temperature Dewpoint
4°C / 39°F 0°C / 32°F
Humidity Altimeter Pressure
75% 30.22" Hg 1023.5 hPa